createdAt,value
2018-10-07T00:02:25.106Z,15.90
2018-10-07T00:04:53.203Z,15.90
2018-10-07T00:07:21.291Z,15.90
2018-10-07T00:09:49.393Z,15.90
2018-10-07T00:12:17.487Z,15.90
2018-10-07T00:14:45.592Z,15.90
2018-10-07T00:17:13.806Z,15.80
2018-10-07T00:19:41.852Z,15.70
2018-10-07T00:22:10.008Z,15.70
2018-10-07T00:24:38.102Z,15.70
2018-10-07T00:27:06.254Z,15.70
2018-10-07T00:29:34.366Z,15.70
2018-10-07T00:32:07.905Z,15.70
2018-10-07T00:34:36.040Z,15.70
2018-10-07T00:37:04.168Z,15.70
2018-10-07T00:39:32.304Z,15.60
2018-10-07T00:42:00.384Z,15.60
2018-10-07T00:44:28.475Z,15.60
2018-10-07T00:46:56.566Z,15.50
2018-10-07T00:49:24.654Z,15.50
2018-10-07T00:51:52.795Z,15.50
2018-10-07T00:54:20.867Z,15.50
2018-10-07T00:56:48.972Z,15.40
2018-10-07T00:59:17.039Z,15.30
2018-10-07T01:01:45.131Z,15.20
2018-10-07T01:04:13.212Z,15.10
2018-10-07T01:06:41.309Z,15.10
2018-10-07T01:09:10.945Z,15.10
2018-10-07T01:11:39.467Z,15.10
2018-10-07T01:14:07.627Z,15.10
2018-10-07T01:16:35.714Z,15.20
2018-10-07T01:19:03.817Z,15.20
2018-10-07T01:21:31.899Z,15.20
2018-10-07T01:23:59.963Z,15.20
2018-10-07T01:26:28.196Z,15.30
2018-10-07T01:28:56.321Z,15.20
2018-10-07T01:31:24.397Z,15.10
2018-10-07T01:33:52.499Z,15.10
2018-10-07T01:36:20.826Z,15.10
2018-10-07T01:38:48.946Z,15.00
2018-10-07T01:41:17.043Z,14.90
2018-10-07T01:43:45.269Z,14.80
2018-10-07T01:46:13.349Z,14.70
2018-10-07T01:48:41.460Z,14.70
2018-10-07T01:51:09.517Z,14.70
2018-10-07T01:53:37.771Z,14.60
2018-10-07T01:56:06.239Z,14.50
2018-10-07T01:58:34.319Z,14.50
2018-10-07T02:01:02.397Z,14.50
2018-10-07T02:03:30.510Z,14.50
2018-10-07T02:05:58.577Z,14.50
2018-10-07T02:08:26.655Z,14.40
2018-10-07T02:10:54.854Z,14.40
2018-10-07T02:13:22.984Z,14.40
2018-10-07T02:15:51.076Z,14.30
2018-10-07T02:18:19.212Z,14.30
2018-10-07T02:20:47.298Z,14.30
2018-10-07T02:23:15.420Z,14.30
2018-10-07T02:25:43.491Z,14.40
2018-10-07T02:28:11.642Z,14.30
2018-10-07T02:30:39.714Z,14.30
2018-10-07T02:33:07.943Z,14.30
2018-10-07T02:35:36.009Z,14.30
2018-10-07T02:38:04.119Z,14.30
2018-10-07T02:40:32.192Z,14.30
2018-10-07T02:43:00.271Z,14.30
2018-10-07T02:45:28.372Z,14.40
2018-10-07T02:47:56.463Z,14.40
2018-10-07T02:50:24.979Z,14.50
2018-10-07T02:52:55.206Z,14.60
2018-10-07T02:55:25.004Z,14.50
2018-10-07T02:57:54.204Z,14.50
2018-10-07T03:00:22.327Z,14.40
2018-10-07T03:02:50.862Z,14.40
2018-10-07T03:05:18.988Z,14.40
2018-10-07T03:07:47.728Z,14.30
2018-10-07T03:10:15.780Z,14.30
2018-10-07T03:12:43.860Z,14.20
2018-10-07T03:15:12.152Z,14.20
2018-10-07T03:17:40.231Z,14.20
2018-10-07T03:20:08.322Z,14.20
2018-10-07T03:22:36.609Z,14.20
2018-10-07T03:25:04.949Z,14.10
2018-10-07T03:27:33.047Z,14.20
2018-10-07T03:30:01.183Z,14.10
2018-10-07T03:32:29.256Z,14.10
2018-10-07T03:34:57.410Z,14.20
2018-10-07T03:37:25.454Z,14.10
2018-10-07T03:39:53.536Z,14.10
2018-10-07T03:42:21.629Z,14.10
2018-10-07T03:44:49.709Z,14.10
2018-10-07T03:47:17.790Z,14.10
2018-10-07T03:49:45.897Z,14.10
2018-10-07T03:52:13.947Z,14.10
2018-10-07T03:54:42.076Z,14.20
2018-10-07T03:57:10.205Z,14.20
2018-10-07T03:59:38.305Z,14.20
2018-10-07T04:02:06.657Z,14.30
2018-10-07T04:04:34.727Z,14.30
2018-10-07T04:07:02.827Z,14.30
2018-10-07T04:09:30.909Z,14.40
2018-10-07T04:11:58.971Z,14.40
2018-10-07T04:14:27.056Z,14.30
2018-10-07T04:16:55.134Z,14.30
2018-10-07T04:19:23.250Z,14.30
2018-10-07T04:21:53.692Z,14.20
2018-10-07T04:24:21.771Z,14.20
2018-10-07T04:26:49.869Z,14.20
2018-10-07T04:29:17.960Z,14.10
2018-10-07T04:31:46.047Z,14.00
2018-10-07T04:34:14.195Z,13.90
2018-10-07T04:36:42.278Z,13.90
2018-10-07T04:39:11.969Z,13.80
2018-10-07T04:41:40.144Z,13.80
2018-10-07T04:44:08.526Z,13.80
2018-10-07T04:46:36.701Z,13.90
2018-10-07T04:49:04.844Z,13.90
2018-10-07T04:51:32.988Z,14.00
2018-10-07T04:54:01.393Z,14.00
2018-10-07T04:56:29.530Z,14.00
2018-10-07T04:58:57.601Z,14.10
2018-10-07T05:01:25.673Z,14.10
2018-10-07T05:03:53.742Z,14.10
2018-10-07T05:06:24.181Z,14.10
2018-10-07T05:08:53.070Z,14.20
2018-10-07T05:11:21.161Z,14.30
2018-10-07T05:13:51.350Z,14.30
2018-10-07T05:16:28.311Z,14.20
2018-10-07T05:18:56.405Z,14.20
2018-10-07T05:21:24.508Z,14.10
2018-10-07T05:23:52.603Z,14.10
2018-10-07T05:26:20.723Z,14.00
2018-10-07T05:28:48.851Z,14.00
2018-10-07T05:31:16.968Z,13.80
2018-10-07T05:33:45.104Z,13.80
2018-10-07T05:36:13.204Z,13.80
2018-10-07T05:38:41.284Z,13.70
2018-10-07T05:41:09.415Z,13.70
2018-10-07T05:43:37.547Z,13.70
2018-10-07T05:46:05.706Z,13.70
2018-10-07T05:48:33.817Z,13.80
2018-10-07T05:51:02.026Z,13.90
2018-10-07T05:53:30.148Z,14.00
2018-10-07T05:55:58.269Z,14.20
2018-10-07T05:58:26.728Z,14.30
2018-10-07T06:00:57.403Z,14.30
2018-10-07T06:04:41.927Z,14.40
2018-10-07T06:07:10.173Z,14.50
2018-10-07T06:09:38.529Z,14.60
2018-10-07T06:12:06.832Z,14.50
2018-10-07T06:14:46.245Z,14.30
2018-10-07T06:17:14.300Z,14.50
2018-10-07T06:19:42.393Z,14.50
2018-10-07T06:22:10.545Z,14.50
2018-10-07T06:24:38.675Z,14.50
2018-10-07T06:27:07.081Z,14.50
2018-10-07T06:29:35.139Z,14.50
2018-10-07T06:32:03.239Z,14.50
2018-10-07T06:34:31.337Z,14.50
2018-10-07T06:36:59.458Z,14.50
2018-10-07T06:39:27.540Z,14.50
2018-10-07T06:41:55.609Z,14.50
2018-10-07T06:44:23.686Z,14.50
2018-10-07T06:46:51.786Z,14.50
2018-10-07T06:49:20.092Z,14.60
2018-10-07T06:51:48.209Z,14.60
2018-10-07T06:54:16.291Z,14.60
2018-10-07T06:56:44.400Z,14.60
2018-10-07T06:59:12.558Z,14.50
2018-10-07T07:01:40.874Z,14.50
2018-10-07T07:04:08.970Z,14.50
2018-10-07T07:06:37.181Z,14.50
2018-10-07T07:09:07.284Z,14.50
2018-10-07T07:11:35.399Z,14.60
2018-10-07T07:14:03.495Z,14.60
2018-10-07T07:16:31.608Z,14.70
2018-10-07T07:18:59.704Z,14.70
2018-10-07T07:21:27.802Z,14.70
2018-10-07T07:23:55.920Z,14.70
2018-10-07T07:26:24.084Z,14.70
2018-10-07T07:28:52.194Z,14.70
2018-10-07T07:31:20.275Z,14.70
2018-10-07T07:33:48.355Z,14.70
2018-10-07T07:36:16.485Z,14.60
2018-10-07T07:38:44.586Z,14.60
2018-10-07T07:41:12.690Z,14.50
2018-10-07T07:43:40.812Z,14.40
2018-10-07T07:46:08.943Z,14.30
2018-10-07T07:48:37.061Z,14.10
2018-10-07T07:51:05.147Z,13.90
2018-10-07T07:53:33.276Z,13.80
2018-10-07T07:56:01.413Z,13.70
2018-10-07T07:58:29.502Z,13.70
2018-10-07T08:00:57.580Z,13.70
2018-10-07T08:03:25.724Z,13.60
2018-10-07T08:05:53.797Z,13.50
2018-10-07T08:08:21.990Z,13.40
2018-10-07T08:10:50.122Z,13.30
2018-10-07T08:13:18.197Z,13.20
2018-10-07T08:15:46.279Z,13.10
2018-10-07T08:18:14.412Z,13.10
2018-10-07T08:20:42.599Z,13.10
2018-10-07T08:23:10.685Z,13.10
2018-10-07T08:25:38.789Z,13.10
2018-10-07T08:28:07.492Z,13.10
2018-10-07T08:30:35.565Z,15.60
2018-10-07T08:33:03.667Z,13.00
2018-10-07T08:35:31.782Z,13.00
2018-10-07T08:38:00.018Z,13.00
2018-10-07T08:40:28.180Z,13.00
2018-10-07T08:42:56.289Z,13.00
2018-10-07T08:45:24.391Z,13.00
2018-10-07T08:47:52.472Z,13.00
2018-10-07T08:50:20.562Z,13.00
2018-10-07T08:52:48.684Z,13.00
2018-10-07T08:55:16.782Z,13.00
2018-10-07T08:57:44.976Z,13.00
2018-10-07T09:00:13.204Z,13.00
2018-10-07T09:02:41.376Z,13.00
2018-10-07T09:05:09.458Z,13.00
2018-10-07T09:07:37.662Z,13.00
2018-10-07T09:10:05.736Z,12.90
2018-10-07T09:12:33.825Z,12.90
2018-10-07T09:15:01.927Z,12.90
2018-10-07T09:17:30.037Z,13.00
2018-10-07T09:19:58.136Z,13.00
2018-10-07T09:22:26.254Z,13.00
2018-10-07T09:24:54.357Z,13.10
2018-10-07T09:27:22.507Z,13.00
2018-10-07T09:29:50.691Z,12.90
2018-10-07T09:32:18.826Z,12.80
2018-10-07T09:34:46.872Z,12.80
2018-10-07T09:37:15.071Z,12.80
2018-10-07T09:39:43.173Z,12.70
2018-10-07T09:42:11.235Z,12.70
2018-10-07T09:44:39.312Z,12.70
2018-10-07T09:47:07.427Z,12.70
2018-10-07T09:49:35.519Z,12.60
2018-10-07T09:52:03.608Z,12.60
2018-10-07T09:54:31.680Z,12.50
2018-10-07T09:56:59.731Z,12.40
2018-10-07T09:59:27.816Z,12.30
2018-10-07T10:01:56.011Z,12.40
2018-10-07T10:04:24.253Z,12.30
2018-10-07T10:06:52.187Z,12.30
2018-10-07T10:09:20.300Z,12.30
2018-10-07T10:11:48.408Z,12.30
2018-10-07T10:14:16.585Z,12.30
2018-10-07T10:16:51.465Z,12.30
2018-10-07T10:19:21.677Z,12.20
2018-10-07T10:21:56.312Z,12.20
2018-10-07T10:24:29.776Z,12.20
2018-10-07T10:27:04.341Z,12.20
2018-10-07T10:29:35.458Z,12.20
2018-10-07T10:32:10.216Z,12.30
2018-10-07T10:34:46.078Z,12.30
2018-10-07T10:37:18.638Z,12.20
2018-10-07T10:39:50.272Z,12.10
2018-10-07T10:42:21.428Z,12.10
2018-10-07T10:44:51.897Z,12.10
2018-10-07T10:47:32.294Z,12.10
2018-10-07T10:50:11.664Z,12.10
2018-10-07T10:52:47.192Z,12.20
2018-10-07T10:55:24.499Z,12.20
2018-10-07T10:57:54.828Z,12.30
2018-10-07T11:00:25.792Z,12.30
2018-10-07T11:03:06.322Z,12.30
2018-10-07T11:05:40.542Z,12.30
2018-10-07T11:08:23.684Z,12.20
2018-10-07T11:11:03.418Z,12.30
2018-10-07T11:13:47.447Z,12.30
2018-10-07T11:16:24.117Z,12.30
2018-10-07T11:19:57.275Z,12.30
2018-10-07T11:22:35.412Z,12.40
2018-10-07T11:25:06.891Z,12.40
2018-10-07T11:27:49.432Z,12.40
2018-10-07T11:30:31.412Z,12.50
2018-10-07T11:33:17.503Z,12.50
2018-10-07T11:35:54.767Z,12.50
2018-10-07T11:38:26.675Z,12.50
2018-10-07T11:42:02.509Z,12.60
2018-10-07T11:44:41.377Z,12.70
2018-10-07T11:49:19.124Z,12.80
2018-10-07T11:52:04.542Z,12.80
2018-10-07T11:55:05.933Z,12.80
2018-10-07T11:57:34.035Z,12.90
2018-10-07T12:00:02.440Z,13.00
2018-10-07T12:02:30.602Z,13.10
2018-10-07T12:04:58.719Z,13.20
2018-10-07T12:07:28.384Z,13.20
2018-10-07T12:09:56.510Z,13.10
2018-10-07T12:12:24.590Z,13.10
2018-10-07T12:14:52.690Z,13.00
2018-10-07T12:17:20.762Z,13.00
2018-10-07T12:19:48.850Z,13.00
2018-10-07T12:22:16.958Z,13.00
2018-10-07T12:24:45.015Z,13.10
2018-10-07T12:27:13.106Z,13.20
2018-10-07T12:29:41.351Z,13.20
2018-10-07T12:32:10.152Z,13.20
2018-10-07T12:34:38.285Z,13.30
2018-10-07T12:37:06.493Z,13.40
2018-10-07T12:39:35.006Z,13.50
2018-10-07T12:42:03.345Z,13.50
2018-10-07T12:44:31.517Z,13.50
2018-10-07T12:46:59.699Z,13.50
2018-10-07T12:49:27.762Z,13.60
2018-10-07T12:51:55.862Z,13.60
2018-10-07T12:54:23.955Z,13.60
2018-10-07T12:56:52.076Z,13.60
2018-10-07T12:59:20.231Z,13.50
2018-10-07T13:01:48.277Z,13.50
2018-10-07T13:04:16.333Z,13.50
2018-10-07T13:06:44.496Z,13.50
2018-10-07T13:09:13.812Z,13.50
2018-10-07T13:11:41.891Z,13.40
2018-10-07T13:14:10.336Z,13.40
2018-10-07T13:16:39.141Z,13.40
2018-10-07T13:19:07.502Z,13.40
2018-10-07T13:21:35.592Z,13.50
2018-10-07T13:24:03.788Z,13.60
2018-10-07T13:26:32.783Z,13.60
2018-10-07T13:29:01.290Z,13.50
2018-10-07T13:31:29.390Z,13.40
2018-10-07T13:33:57.475Z,13.40
2018-10-07T13:36:25.555Z,13.30
2018-10-07T13:38:53.660Z,13.30
2018-10-07T13:41:21.735Z,13.30
2018-10-07T13:43:49.819Z,13.30
2018-10-07T13:46:17.892Z,13.30
2018-10-07T13:48:45.967Z,13.30
2018-10-07T13:51:14.064Z,13.30
2018-10-07T13:53:42.180Z,13.30
2018-10-07T13:56:10.275Z,13.40
2018-10-07T13:58:38.387Z,13.40
2018-10-07T14:01:06.541Z,13.40
2018-10-07T14:03:34.894Z,13.40
2018-10-07T14:06:02.904Z,13.30
2018-10-07T14:08:31.027Z,13.30
2018-10-07T14:10:59.095Z,13.30
2018-10-07T14:13:27.624Z,13.30
2018-10-07T14:15:55.746Z,13.30
2018-10-07T14:18:23.847Z,13.40
2018-10-07T14:20:51.893Z,13.40
2018-10-07T14:23:19.961Z,13.40
2018-10-07T14:25:48.040Z,13.50
2018-10-07T14:28:16.106Z,13.40
2018-10-07T14:30:44.184Z,13.40
2018-10-07T14:33:12.302Z,13.40
2018-10-07T14:35:40.436Z,13.40
2018-10-07T14:38:08.563Z,13.40
2018-10-07T14:40:36.647Z,13.40
2018-10-07T14:43:04.932Z,13.40
2018-10-07T14:45:33.002Z,13.30
2018-10-07T14:48:01.080Z,13.30
2018-10-07T14:50:29.222Z,13.20
2018-10-07T14:52:57.343Z,13.20
2018-10-07T14:55:25.481Z,13.10
2018-10-07T14:57:53.595Z,13.10
2018-10-07T15:00:21.723Z,13.00
2018-10-07T15:02:49.892Z,13.00
2018-10-07T15:05:17.984Z,13.00
2018-10-07T15:07:46.065Z,13.00
2018-10-07T15:10:14.211Z,13.00
2018-10-07T15:12:42.296Z,13.00
2018-10-07T15:15:10.374Z,13.00
2018-10-07T15:17:38.444Z,13.00
2018-10-07T15:20:06.713Z,13.10
2018-10-07T15:22:34.815Z,13.10
2018-10-07T15:25:02.903Z,13.20
2018-10-07T15:27:31.037Z,13.10
2018-10-07T15:29:59.278Z,13.20
2018-10-07T15:32:27.316Z,13.20
2018-10-07T15:34:55.444Z,13.20
2018-10-07T15:37:23.902Z,13.20
2018-10-07T15:39:52.234Z,13.20
2018-10-07T15:42:20.428Z,13.30
2018-10-07T15:44:48.553Z,13.30
2018-10-07T15:47:16.648Z,13.20
2018-10-07T15:49:44.768Z,13.10
2018-10-07T15:52:12.882Z,13.10
2018-10-07T15:54:40.938Z,13.00
2018-10-07T15:57:09.087Z,13.00
2018-10-07T15:59:37.186Z,12.90
2018-10-07T16:02:05.310Z,12.90
2018-10-07T16:04:33.399Z,12.80
2018-10-07T16:07:01.720Z,12.80
2018-10-07T16:09:29.902Z,12.70
2018-10-07T16:11:57.981Z,12.70
2018-10-07T16:14:26.078Z,12.70
2018-10-07T16:16:54.176Z,12.70
2018-10-07T16:19:22.400Z,12.60
2018-10-07T16:21:50.497Z,12.50
2018-10-07T16:24:18.707Z,12.50
2018-10-07T16:26:46.773Z,12.40
2018-10-07T16:29:14.912Z,12.40
2018-10-07T16:31:43.214Z,12.30
2018-10-07T16:34:11.380Z,12.20
2018-10-07T16:36:39.654Z,12.20
2018-10-07T16:39:08.072Z,12.20
2018-10-07T16:41:36.376Z,12.10
2018-10-07T16:44:04.508Z,12.10
2018-10-07T16:46:32.625Z,12.00
2018-10-07T16:49:01.085Z,12.00
2018-10-07T16:51:29.239Z,11.90
2018-10-07T16:53:57.371Z,11.80
2018-10-07T16:56:25.599Z,11.80
2018-10-07T16:58:53.689Z,11.80
2018-10-07T17:01:21.823Z,11.70
2018-10-07T17:03:49.946Z,11.70
2018-10-07T17:06:18.168Z,11.60
2018-10-07T17:08:46.296Z,11.60
2018-10-07T17:11:14.450Z,11.50
2018-10-07T17:13:42.802Z,11.50
2018-10-07T17:16:11.046Z,11.50
2018-10-07T17:18:39.513Z,11.40
2018-10-07T17:21:07.736Z,11.40
2018-10-07T17:23:35.986Z,11.30
2018-10-07T17:26:04.100Z,11.30
2018-10-07T17:28:32.233Z,11.20
2018-10-07T17:31:00.354Z,11.20
2018-10-07T17:33:28.452Z,11.10
2018-10-07T17:35:56.568Z,11.10
2018-10-07T17:38:24.671Z,11.10
2018-10-07T17:40:52.741Z,11.00
2018-10-07T17:43:20.836Z,11.00
2018-10-07T17:45:48.971Z,10.90
2018-10-07T17:48:17.195Z,10.90
2018-10-07T17:50:45.294Z,10.80
2018-10-07T17:53:13.393Z,10.80
2018-10-07T17:55:41.487Z,10.80
2018-10-07T17:58:09.645Z,10.70
2018-10-07T18:00:37.780Z,10.70
2018-10-07T18:03:05.961Z,10.70
2018-10-07T18:05:34.096Z,10.70
2018-10-07T18:08:02.176Z,10.60
2018-10-07T18:10:30.247Z,10.60
2018-10-07T18:12:58.345Z,10.50
2018-10-07T18:15:26.435Z,10.50
2018-10-07T18:17:54.525Z,10.40
2018-10-07T18:20:22.634Z,10.40
2018-10-07T18:22:50.744Z,10.40
2018-10-07T18:25:18.879Z,10.40
2018-10-07T18:27:47.018Z,10.30
2018-10-07T18:30:15.155Z,10.30
2018-10-07T18:32:43.273Z,10.30
2018-10-07T18:35:11.352Z,10.20
2018-10-07T18:37:39.495Z,10.20
2018-10-07T18:40:07.695Z,10.00
2018-10-07T18:42:35.797Z,10.00
2018-10-07T18:45:03.902Z,9.90
2018-10-07T18:47:32.022Z,9.90
2018-10-07T18:50:00.088Z,9.90
2018-10-07T18:52:28.203Z,9.90
2018-10-07T18:54:56.406Z,9.80
2018-10-07T18:57:24.518Z,9.80
2018-10-07T18:59:52.781Z,9.70
2018-10-07T19:02:21.033Z,9.70
2018-10-07T19:04:49.128Z,9.70
2018-10-07T19:07:17.256Z,9.60
2018-10-07T19:09:45.432Z,9.60
2018-10-07T19:12:13.688Z,9.60
2018-10-07T19:14:41.974Z,9.60
2018-10-07T19:17:10.120Z,9.50
2018-10-07T19:19:38.341Z,9.40
2018-10-07T19:22:06.510Z,9.30
2018-10-07T19:24:34.652Z,9.30
2018-10-07T19:27:02.865Z,9.20
2018-10-07T19:29:31.069Z,9.20
2018-10-07T19:31:59.166Z,9.20
2018-10-07T19:34:27.279Z,9.30
2018-10-07T19:36:55.561Z,9.30
2018-10-07T19:39:23.580Z,9.30
2018-10-07T19:41:51.723Z,9.20
2018-10-07T19:44:19.803Z,9.20
2018-10-07T19:46:47.910Z,9.20
2018-10-07T19:49:16.066Z,9.20
2018-10-07T19:51:44.153Z,9.10
2018-10-07T19:54:12.296Z,9.20
2018-10-07T19:56:40.467Z,9.20
2018-10-07T19:59:08.550Z,9.10
2018-10-07T20:01:36.687Z,9.00
2018-10-07T20:04:04.780Z,8.80
2018-10-07T20:06:32.850Z,8.70
2018-10-07T20:09:00.945Z,8.70
2018-10-07T20:11:29.053Z,8.80
2018-10-07T20:13:57.179Z,8.80
2018-10-07T20:16:25.297Z,8.80
2018-10-07T20:18:53.440Z,8.80
2018-10-07T20:21:21.574Z,8.80
2018-10-07T20:23:49.701Z,8.80
2018-10-07T20:26:17.918Z,8.70
2018-10-07T20:28:45.980Z,8.70
2018-10-07T20:31:14.080Z,8.70
2018-10-07T20:33:42.188Z,8.60
2018-10-07T20:36:10.302Z,8.70
2018-10-07T20:38:38.378Z,8.60
2018-10-07T20:41:06.442Z,8.60
2018-10-07T20:43:34.530Z,8.50
2018-10-07T20:46:02.641Z,8.40
2018-10-07T20:48:30.737Z,8.40
2018-10-07T20:50:58.840Z,8.50
2018-10-07T20:53:26.964Z,8.40
2018-10-07T20:55:55.088Z,8.50
2018-10-07T20:58:23.205Z,8.40
2018-10-07T21:00:51.620Z,8.50
2018-10-07T21:03:19.771Z,8.50
2018-10-07T21:05:47.926Z,8.40
2018-10-07T21:08:16.084Z,8.40
2018-10-07T21:10:44.173Z,8.40
2018-10-07T21:13:12.261Z,8.30
2018-10-07T21:15:40.360Z,8.30
2018-10-07T21:18:08.431Z,8.30
2018-10-07T21:20:36.553Z,8.30
2018-10-07T21:23:04.613Z,8.20
2018-10-07T21:25:32.676Z,8.10
2018-10-07T21:28:00.740Z,8.10
2018-10-07T21:30:28.794Z,8.10
2018-10-07T21:32:56.923Z,8.00
2018-10-07T21:35:31.960Z,7.90
2018-10-07T21:38:00.051Z,7.90
2018-10-07T21:40:28.126Z,7.80
2018-10-07T21:42:56.250Z,7.80
2018-10-07T21:45:24.322Z,7.60
2018-10-07T21:47:52.430Z,7.50
2018-10-07T21:50:20.492Z,7.50
2018-10-07T21:52:48.559Z,7.50
2018-10-07T21:55:16.635Z,7.50
2018-10-07T21:57:44.900Z,7.40
2018-10-07T22:00:13.004Z,7.40
2018-10-07T22:02:41.103Z,7.40
2018-10-07T22:05:09.213Z,7.40
2018-10-07T22:07:37.278Z,7.40
2018-10-07T22:10:05.393Z,7.40
2018-10-07T22:12:33.470Z,7.30
2018-10-07T22:15:01.561Z,7.30
2018-10-07T22:17:29.638Z,7.20
2018-10-07T22:19:57.724Z,7.20
2018-10-07T22:22:25.803Z,7.10
2018-10-07T22:24:53.928Z,7.00
2018-10-07T22:27:22.023Z,7.00
2018-10-07T22:29:50.192Z,7.00
2018-10-07T22:32:18.249Z,7.00
2018-10-07T22:34:46.339Z,7.10
2018-10-07T22:37:14.399Z,7.00
2018-10-07T22:39:42.463Z,7.00
2018-10-07T22:42:10.556Z,7.00
2018-10-07T22:44:38.627Z,7.00
2018-10-07T22:47:06.720Z,7.00
2018-10-07T22:49:34.792Z,7.00
2018-10-07T22:52:02.833Z,7.00
2018-10-07T22:54:30.931Z,7.00
2018-10-07T22:56:58.987Z,7.00
2018-10-07T22:59:27.242Z,6.90
2018-10-07T23:01:55.314Z,6.90
2018-10-07T23:04:23.379Z,6.90
2018-10-07T23:06:51.473Z,7.40
2018-10-07T23:09:19.553Z,7.00
2018-10-07T23:11:47.648Z,6.90
2018-10-07T23:14:15.728Z,6.90
2018-10-07T23:16:43.818Z,6.90
2018-10-07T23:19:11.984Z,6.80
2018-10-07T23:21:40.074Z,6.80
2018-10-07T23:24:08.188Z,6.80
2018-10-07T23:26:36.271Z,6.80
2018-10-07T23:29:04.409Z,6.80
2018-10-07T23:31:32.482Z,6.80
2018-10-07T23:34:00.544Z,6.90
2018-10-07T23:36:28.676Z,6.90
2018-10-07T23:38:56.743Z,6.80
2018-10-07T23:41:24.854Z,6.90
2018-10-07T23:43:52.968Z,6.90
2018-10-07T23:46:21.127Z,6.80
2018-10-07T23:48:49.200Z,6.90
2018-10-07T23:51:17.339Z,6.90
2018-10-07T23:53:45.407Z,6.90
2018-10-07T23:56:13.505Z,6.90
2018-10-07T23:58:41.600Z,6.80
